Time;durP1;ratioP1;P1;durP2;ratioP2;P2;SDS_P1;SDS_P2;PMS_P1;PMS_P2;Temp;Humidity;BMP_temperature;BMP_pressure;BME280_temperature;BME280_humidity;BME280_pressure;Samples;Min_cycle;Max_cycle;Signal;HPM_P1;HPM_P2
2023/09/08 00:01:58;;;;;;;11.70;8.98;;;;;;;;;;5025936;28;20141;-69
2023/09/08 00:04:24;;;;;;;11.23;8.98;;;;;;;;;;5025981;28;20064;-70
2023/09/08 00:06:50;;;;;;;15.40;9.77;;;;;;;;;;5026428;28;20491;-70
2023/09/08 00:09:17;;;;;;;9.88;8.05;;;;;;;;;;5026227;28;20034;-70
2023/09/08 00:11:43;;;;;;;12.20;8.90;;;;;;;;;;5027499;28;20525;-70
2023/09/08 00:14:08;;;;;;;14.57;9.40;;;;;;;;;;5024883;28;20033;-70
2023/09/08 00:16:34;;;;;;;14.90;8.90;;;;;;;;;;5026338;28;20041;-70
2023/09/08 00:19:00;;;;;;;13.48;9.18;;;;;;;;;;5025863;28;20051;-70
2023/09/08 00:21:26;;;;;;;11.68;9.32;;;;;;;;;;5026253;28;20498;-70
2023/09/08 00:23:53;;;;;;;14.73;9.30;;;;;;;;;;5026196;28;20027;-70
2023/09/08 00:26:20;;;;;;;10.82;8.95;;;;;;;;;;5025314;28;20116;-70
2023/09/08 00:28:47;;;;;;;11.57;8.90;;;;;;;;;;5028063;28;20822;-70
2023/09/08 00:31:14;;;;;;;13.40;9.80;;;;;;;;;;5030414;28;20045;-70
2023/09/08 00:33:42;;;;;;;10.52;8.43;;;;;;;;;;5028396;28;20084;-70
2023/09/08 00:36:08;;;;;;;13.75;9.55;;;;;;;;;;5041003;28;20068;-70
2023/09/08 00:38:34;;;;;;;12.60;10.32;;;;;;;;;;5028913;28;20080;-70
2023/09/08 00:41:02;;;;;;;15.93;10.00;;;;;;;;;;5028410;28;20558;-70
2023/09/08 00:43:31;;;;;;;15.48;9.93;;;;;;;;;;5029406;28;20030;-70
2023/09/08 00:45:58;;;;;;;13.07;9.48;;;;;;;;;;5028405;28;20032;-70
2023/09/08 00:48:25;;;;;;;14.15;9.63;;;;;;;;;;5029109;28;20036;-70
2023/09/08 00:50:51;;;;;;;11.10;8.20;;;;;;;;;;5030568;28;20057;-70
2023/09/08 00:53:17;;;;;;;21.17;9.73;;;;;;;;;;5030603;28;20442;-69
2023/09/08 00:55:44;;;;;;;16.27;12.07;;;;;;;;;;5033773;28;20033;-70
2023/09/08 00:58:12;;;;;;;16.90;11.23;;;;;;;;;;5033648;28;20037;-69
2023/09/08 01:00:38;;;;;;;19.35;11.73;;;;;;;;;;5033703;28;20037;-69
2023/09/08 01:03:04;;;;;;;19.98;12.27;;;;;;;;;;5034633;28;20045;-69
2023/09/08 01:05:31;;;;;;;13.93;10.63;;;;;;;;;;5033615;28;20087;-71
2023/09/08 01:07:59;;;;;;;14.65;10.55;;;;;;;;;;5032452;28;20025;-70
2023/09/08 01:10:25;;;;;;;12.35;10.13;;;;;;;;;;5019674;28;20038;-70
2023/09/08 01:12:50;;;;;;;18.38;11.63;;;;;;;;;;5033060;28;20382;-71
2023/09/08 01:15:16;;;;;;;14.88;10.80;;;;;;;;;;5031931;28;20036;-71
2023/09/08 01:17:42;;;;;;;14.02;10.70;;;;;;;;;;5043845;28;20029;-71
2023/09/08 01:20:29;;;;;;;20.52;11.95;;;;;;;;;;5047546;28;20083;-71
2023/09/08 01:23:10;;;;;;;16.13;11.02;;;;;;;;;;5029850;28;20391;-71
2023/09/08 01:25:46;;;;;;;13.70;11.02;;;;;;;;;;5032222;28;20033;-71
2023/09/08 01:28:12;;;;;;;16.40;11.07;;;;;;;;;;5016087;28;20040;-71
2023/09/08 01:30:39;;;;;;;16.95;11.85;;;;;;;;;;5032495;28;20446;-72
2023/09/08 01:33:05;;;;;;;11.95;9.07;;;;;;;;;;5028281;28;20033;-70
2023/09/08 01:35:31;;;;;;;16.83;11.63;;;;;;;;;;5027864;28;20510;-71
2023/09/08 01:37:59;;;;;;;16.20;11.30;;;;;;;;;;5028842;28;20037;-71
2023/09/08 01:40:26;;;;;;;17.88;11.02;;;;;;;;;;5028364;28;20104;-70
2023/09/08 01:42:52;;;;;;;17.75;11.48;;;;;;;;;;5028732;28;20459;-71
2023/09/08 01:45:17;;;;;;;14.65;10.95;;;;;;;;;;5031962;28;20120;-70
2023/09/08 01:47:43;;;;;;;12.32;10.07;;;;;;;;;;5030996;28;20394;-71
2023/09/08 01:50:09;;;;;;;15.82;11.40;;;;;;;;;;5027475;28;20044;-71
2023/09/08 01:52:35;;;;;;;11.68;9.85;;;;;;;;;;5028123;28;20333;-70
2023/09/08 01:55:01;;;;;;;19.88;10.82;;;;;;;;;;5027733;28;20033;-70
2023/09/08 01:57:28;;;;;;;15.23;10.43;;;;;;;;;;5027602;28;20513;-71
2023/09/08 01:59:55;;;;;;;15.35;10.55;;;;;;;;;;5028048;28;20033;-70
2023/09/08 02:02:21;;;;;;;12.43;9.95;;;;;;;;;;5027629;28;20037;-70
2023/09/08 02:04:48;;;;;;;20.15;9.77;;;;;;;;;;5029860;28;20063;-71
2023/09/08 02:07:14;;;;;;;13.63;11.27;;;;;;;;;;5027390;28;20128;-71
2023/09/08 02:09:40;;;;;;;15.90;10.85;;;;;;;;;;5027602;28;20029;-71
2023/09/08 02:12:06;;;;;;;18.55;10.23;;;;;;;;;;5027104;28;20040;-70
2023/09/08 02:14:32;;;;;;;15.90;11.02;;;;;;;;;;5027157;28;20499;-70
2023/09/08 02:16:58;;;;;;;13.40;10.70;;;;;;;;;;5027082;28;20037;-71
2023/09/08 02:19:24;;;;;;;13.70;10.75;;;;;;;;;;5028175;28;20040;-70
2023/09/08 02:21:49;;;;;;;15.18;10.85;;;;;;;;;;5028347;28;20049;-70
2023/09/08 02:24:15;;;;;;;15.45;10.18;;;;;;;;;;5028061;28;20025;-71
2023/09/08 02:26:42;;;;;;;15.40;11.10;;;;;;;;;;5027648;28;20056;-71
2023/09/08 02:29:08;;;;;;;14.32;11.05;;;;;;;;;;5027142;28;20487;-71
2023/09/08 02:31:34;;;;;;;14.18;10.95;;;;;;;;;;5027055;28;20158;-71
2023/09/08 02:34:03;;;;;;;18.70;11.75;;;;;;;;;;5026228;28;20395;-71
2023/09/08 02:36:29;;;;;;;17.05;11.18;;;;;;;;;;5027069;28;20048;-71
2023/09/08 02:38:56;;;;;;;16.23;11.15;;;;;;;;;;5027885;28;20048;-70
2023/09/08 02:41:23;;;;;;;15.13;10.55;;;;;;;;;;5030113;28;20203;-70
2023/09/08 02:43:49;;;;;;;18.20;9.88;;;;;;;;;;5030168;28;20023;-70
2023/09/08 02:46:17;;;;;;;13.52;9.95;;;;;;;;;;5027870;28;20041;-71
2023/09/08 02:48:44;;;;;;;13.32;10.85;;;;;;;;;;5032346;28;20486;-71
2023/09/08 02:51:10;;;;;;;16.17;10.70;;;;;;;;;;5028114;28;20570;-70
2023/09/08 02:53:36;;;;;;;17.65;11.27;;;;;;;;;;5026207;28;20041;-70
2023/09/08 02:56:05;;;;;;;14.85;11.38;;;;;;;;;;5026890;28;20041;-70
2023/09/08 02:58:35;;;;;;;18.10;12.45;;;;;;;;;;5027858;28;20025;-70
2023/09/08 03:01:13;;;;;;;15.73;10.93;;;;;;;;;;5027944;28;20208;-71
2023/09/08 03:03:40;;;;;;;15.23;11.07;;;;;;;;;;5014539;28;20025;-70
2023/09/08 03:06:06;;;;;;;12.68;10.65;;;;;;;;;;5026625;28;20322;-70
2023/09/08 03:08:32;;;;;;;14.93;11.52;;;;;;;;;;5026349;28;20041;-70
2023/09/08 03:10:59;;;;;;;14.75;11.50;;;;;;;;;;5026513;28;20029;-70
2023/09/08 03:13:26;;;;;;;15.57;10.60;;;;;;;;;;5025543;28;20037;-70
2023/09/08 03:15:52;;;;;;;16.55;11.20;;;;;;;;;;5027829;28;20275;-70
2023/09/08 03:18:18;;;;;;;14.75;10.35;;;;;;;;;;5028225;28;20368;-70
2023/09/08 03:20:49;;;;;;;15.05;10.23;;;;;;;;;;5026472;28;20091;-70
2023/09/08 03:23:16;;;;;;;19.92;11.45;;;;;;;;;;5025948;28;20083;-70
2023/09/08 03:25:42;;;;;;;18.92;11.00;;;;;;;;;;5025976;28;20033;-71
2023/09/08 03:28:08;;;;;;;13.18;9.68;;;;;;;;;;5026966;28;20044;-71
2023/09/08 03:30:34;;;;;;;11.40;9.55;;;;;;;;;;5026929;28;20395;-71
2023/09/08 03:33:01;;;;;;;12.52;9.73;;;;;;;;;;5028157;28;20037;-71
2023/09/08 03:35:27;;;;;;;15.55;9.75;;;;;;;;;;5025674;28;20561;-71
2023/09/08 03:37:53;;;;;;;18.90;10.02;;;;;;;;;;5027090;28;20034;-71
2023/09/08 03:40:19;;;;;;;13.60;9.50;;;;;;;;;;5025317;28;20029;-70
2023/09/08 03:42:45;;;;;;;17.08;10.55;;;;;;;;;;5008875;28;20065;-71
2023/09/08 03:45:11;;;;;;;11.80;8.88;;;;;;;;;;5026972;28;20060;-71
2023/09/08 03:47:37;;;;;;;13.45;8.73;;;;;;;;;;5009497;28;20069;-71
2023/09/08 03:50:03;;;;;;;19.60;8.95;;;;;;;;;;5028026;28;20524;-71
2023/09/08 03:52:29;;;;;;;12.65;8.32;;;;;;;;;;5028029;28;20036;-70
2023/09/08 03:54:55;;;;;;;11.82;8.10;;;;;;;;;;5011871;28;20034;-72
2023/09/08 03:57:21;;;;;;;15.65;9.30;;;;;;;;;;5028435;28;20029;-71
2023/09/08 03:59:47;;;;;;;14.93;8.02;;;;;;;;;;5030679;28;20569;-71
2023/09/08 04:02:12;;;;;;;12.00;8.68;;;;;;;;;;5028940;28;20120;-71
2023/09/08 04:04:39;;;;;;;11.18;8.00;;;;;;;;;;5031612;28;20092;-72
2023/09/08 04:07:05;;;;;;;13.35;8.07;;;;;;;;;;5032659;28;20040;-71
2023/09/08 04:09:31;;;;;;;11.48;8.43;;;;;;;;;;5033047;28;20022;-71
2023/09/08 04:11:57;;;;;;;12.70;8.43;;;;;;;;;;5032825;28;20509;-71
2023/09/08 04:14:26;;;;;;;10.15;7.88;;;;;;;;;;5032944;28;20030;-71
2023/09/08 04:16:53;;;;;;;15.43;9.02;;;;;;;;;;5034513;28;20036;-71
2023/09/08 04:19:19;;;;;;;11.45;7.60;;;;;;;;;;5033130;28;20029;-71
2023/09/08 04:21:45;;;;;;;15.13;8.50;;;;;;;;;;5032934;28;20029;-71
2023/09/08 04:24:11;;;;;;;11.70;8.40;;;;;;;;;;5032711;28;20033;-71
2023/09/08 04:26:37;;;;;;;28.08;9.15;;;;;;;;;;5032627;28;20045;-71
2023/09/08 04:29:04;;;;;;;18.52;8.68;;;;;;;;;;5032584;28;20017;-70
2023/09/08 04:31:30;;;;;;;13.07;7.60;;;;;;;;;;5032604;28;20040;-71
2023/09/08 04:33:56;;;;;;;21.63;7.93;;;;;;;;;;5032015;28;20033;-71
2023/09/08 04:36:23;;;;;;;12.90;8.90;;;;;;;;;;5031180;28;20105;-71
2023/09/08 04:38:49;;;;;;;17.30;8.02;;;;;;;;;;5032468;28;20025;-71
2023/09/08 04:41:15;;;;;;;23.98;8.38;;;;;;;;;;5032373;28;20033;-71
2023/09/08 04:43:40;;;;;;;20.92;9.15;;;;;;;;;;5031861;28;20063;-71
2023/09/08 04:46:06;;;;;;;20.42;8.00;;;;;;;;;;5031979;28;20029;-72
2023/09/08 04:48:32;;;;;;;48.85;10.00;;;;;;;;;;5033386;28;20574;-71
2023/09/08 04:50:58;;;;;;;26.58;9.25;;;;;;;;;;5032061;28;20037;-71
2023/09/08 04:53:24;;;;;;;19.33;8.02;;;;;;;;;;5031531;28;20024;-71
2023/09/08 04:55:50;;;;;;;17.27;8.68;;;;;;;;;;5031862;28;20285;-71
2023/09/08 04:58:16;;;;;;;23.50;9.60;;;;;;;;;;5031960;28;20037;-71
2023/09/08 05:00:42;;;;;;;27.35;9.57;;;;;;;;;;5029329;28;20171;-72
2023/09/08 05:03:08;;;;;;;16.25;7.63;;;;;;;;;;5031783;28;20049;-71
2023/09/08 05:05:34;;;;;;;13.95;7.40;;;;;;;;;;5033252;28;20483;-72
2023/09/08 05:08:00;;;;;;;22.70;7.40;;;;;;;;;;5030377;28;20086;-73
2023/09/08 05:10:26;;;;;;;18.83;6.60;;;;;;;;;;5031804;28;20037;-73
2023/09/08 05:12:52;;;;;;;12.77;6.80;;;;;;;;;;5031259;28;20040;-71
2023/09/08 05:15:21;;;;;;;10.07;6.53;;;;;;;;;;5029841;28;20128;-72
2023/09/08 05:17:50;;;;;;;12.32;6.35;;;;;;;;;;5030946;28;20071;-70
2023/09/08 05:20:18;;;;;;;12.82;6.20;;;;;;;;;;5031395;28;20134;-70
2023/09/08 05:22:45;;;;;;;11.60;6.13;;;;;;;;;;5031471;28;20029;-71
2023/09/08 05:25:12;;;;;;;16.02;7.25;;;;;;;;;;5030883;28;20064;-70
2023/09/08 05:27:38;;;;;;;14.23;7.22;;;;;;;;;;5031417;28;20029;-71
2023/09/08 05:30:05;;;;;;;14.30;6.35;;;;;;;;;;5031369;28;20025;-72
2023/09/08 05:32:32;;;;;;;14.10;5.95;;;;;;;;;;5030810;28;20144;-72
2023/09/08 05:34:59;;;;;;;15.40;7.20;;;;;;;;;;5014280;28;20578;-73
2023/09/08 05:37:24;;;;;;;21.00;7.68;;;;;;;;;;5030593;28;20083;-73
2023/09/08 05:39:50;;;;;;;26.42;7.30;;;;;;;;;;5027651;28;20037;-72
2023/09/08 05:42:16;;;;;;;12.02;6.65;;;;;;;;;;5028049;28;20109;-73
2023/09/08 05:44:42;;;;;;;28.45;8.15;;;;;;;;;;5026886;28;20022;-72
2023/09/08 05:47:09;;;;;;;15.07;7.95;;;;;;;;;;5030102;28;20032;-72
2023/09/08 05:49:35;;;;;;;15.00;7.82;;;;;;;;;;5030169;28;20462;-76
2023/09/08 05:52:01;;;;;;;17.67;7.53;;;;;;;;;;5030718;28;20155;-73
2023/09/08 05:54:30;;;;;;;12.27;8.52;;;;;;;;;;5030708;28;20067;-72
2023/09/08 05:56:56;;;;;;;15.38;8.77;;;;;;;;;;5030984;28;20136;-72
2023/09/08 05:59:21;;;;;;;15.13;8.10;;;;;;;;;;5032225;28;20065;-72
2023/09/08 06:01:47;;;;;;;19.42;7.75;;;;;;;;;;5031999;28;20057;-73
2023/09/08 06:04:13;;;;;;;12.13;7.68;;;;;;;;;;5032159;28;20025;-74
2023/09/08 06:06:39;;;;;;;11.80;7.88;;;;;;;;;;5030518;28;20025;-71
2023/09/08 06:09:07;;;;;;;11.57;7.70;;;;;;;;;;5031013;28;20124;-72
2023/09/08 06:11:33;;;;;;;10.77;6.95;;;;;;;;;;5032382;28;20067;-72
2023/09/08 06:14:00;;;;;;;10.48;7.80;;;;;;;;;;5031385;28;20030;-72
2023/09/08 06:16:28;;;;;;;14.10;8.95;;;;;;;;;;5030382;28;20038;-73
2023/09/08 06:18:54;;;;;;;14.43;9.30;;;;;;;;;;5014752;28;20037;-73
2023/09/08 06:21:20;;;;;;;15.00;8.48;;;;;;;;;;5030990;28;20037;-72
2023/09/08 06:23:47;;;;;;;14.68;7.50;;;;;;;;;;5032469;28;20026;-74
2023/09/08 06:26:13;;;;;;;16.75;7.82;;;;;;;;;;5030308;28;20037;-72
2023/09/08 06:28:41;;;;;;;12.02;8.48;;;;;;;;;;5014166;28;20037;-71
2023/09/08 06:31:07;;;;;;;10.82;8.02;;;;;;;;;;5030659;28;20029;-71
2023/09/08 06:33:35;;;;;;;18.70;9.98;;;;;;;;;;5013534;28;20503;-72
2023/09/08 06:36:01;;;;;;;13.80;10.10;;;;;;;;;;5028739;28;20111;-71
2023/09/08 06:38:31;;;;;;;16.17;10.27;;;;;;;;;;5030413;28;20486;-74
2023/09/08 06:41:00;;;;;;;15.40;9.90;;;;;;;;;;5031380;28;20122;-73
2023/09/08 06:43:27;;;;;;;15.15;9.43;;;;;;;;;;5029963;28;20033;-73
2023/09/08 06:46:02;;;;;;;13.27;8.55;;;;;;;;;;5030015;28;20045;-72
2023/09/08 06:48:29;;;;;;;12.20;8.38;;;;;;;;;;5029920;28;20403;-74
2023/09/08 06:50:56;;;;;;;13.55;8.10;;;;;;;;;;5030187;28;20050;-74
2023/09/08 06:53:23;;;;;;;11.75;8.77;;;;;;;;;;5030418;28;20573;-74
2023/09/08 06:55:50;;;;;;;12.60;8.52;;;;;;;;;;5031917;28;20069;-75
2023/09/08 06:58:16;;;;;;;16.67;9.75;;;;;;;;;;5030119;28;20037;-74
2023/09/08 07:00:43;;;;;;;16.92;10.18;;;;;;;;;;5030126;28;20044;-74
2023/09/08 07:03:10;;;;;;;11.35;8.52;;;;;;;;;;5031476;28;20104;-73
2023/09/08 07:05:39;;;;;;;10.25;6.55;;;;;;;;;;5029674;28;20029;-75
2023/09/08 07:08:06;;;;;;;9.52;5.47;;;;;;;;;;5029850;28;20025;-73
2023/09/08 07:10:33;;;;;;;10.45;5.68;;;;;;;;;;5030451;28;20495;-73
2023/09/08 07:12:59;;;;;;;6.88;3.95;;;;;;;;;;5029493;28;20045;-76
2023/09/08 07:15:26;;;;;;;8.57;4.63;;;;;;;;;;5030377;28;20033;-72
2023/09/08 07:17:52;;;;;;;7.45;4.78;;;;;;;;;;5028112;28;20115;-76
2023/09/08 07:20:18;;;;;;;13.10;4.03;;;;;;;;;;5029514;28;20267;-75
2023/09/08 07:22:44;;;;;;;8.20;4.82;;;;;;;;;;5029035;28;20033;-73
2023/09/08 07:25:10;;;;;;;7.80;3.85;;;;;;;;;;5012329;28;20028;-73
2023/09/08 07:27:36;;;;;;;8.48;4.72;;;;;;;;;;5029336;28;20033;-75
2023/09/08 07:30:04;;;;;;;5.20;3.58;;;;;;;;;;5012928;28;20043;-74
2023/09/08 07:32:31;;;;;;;5.95;3.78;;;;;;;;;;5029339;28;20507;-76
2023/09/08 07:34:57;;;;;;;13.40;4.32;;;;;;;;;;5029438;28;20042;-75
2023/09/08 07:37:24;;;;;;;7.47;3.78;;;;;;;;;;5029109;28;20029;-75
2023/09/08 07:39:51;;;;;;;5.18;3.50;;;;;;;;;;5032367;28;20462;-73
2023/09/08 07:42:19;;;;;;;6.13;4.18;;;;;;;;;;5016512;28;20045;-75
2023/09/08 07:44:45;;;;;;;13.88;5.88;;;;;;;;;;5033252;28;20022;-74
2023/09/08 07:47:11;;;;;;;9.38;4.25;;;;;;;;;;5033993;28;20029;-72
2023/09/08 07:49:37;;;;;;;5.00;3.42;;;;;;;;;;5034747;28;20025;-75
2023/09/08 07:52:06;;;;;;;7.45;4.45;;;;;;;;;;5033774;28;20060;-74
2023/09/08 07:54:33;;;;;;;5.18;3.50;;;;;;;;;;5034490;28;20091;-74
2023/09/08 07:56:59;;;;;;;10.07;3.95;;;;;;;;;;5034084;28;20065;-75
2023/09/08 07:59:25;;;;;;;10.60;4.40;;;;;;;;;;5034303;28;20026;-72
2023/09/08 08:01:51;;;;;;;6.20;4.10;;;;;;;;;;5032690;28;20037;-74
2023/09/08 08:04:16;;;;;;;6.28;3.45;;;;;;;;;;5033747;28;20156;-75
2023/09/08 08:06:43;;;;;;;4.38;3.08;;;;;;;;;;5032416;28;20459;-72
2023/09/08 08:09:10;;;;;;;4.05;3.20;;;;;;;;;;5033522;28;20129;-72
2023/09/08 08:11:36;;;;;;;6.90;3.00;;;;;;;;;;5035147;28;20042;-73
2023/09/08 08:14:01;;;;;;;3.92;2.80;;;;;;;;;;5033884;28;20029;-72
2023/09/08 08:16:27;;;;;;;4.55;3.28;;;;;;;;;;5035505;28;20030;-72
2023/09/08 08:18:53;;;;;;;4.40;2.92;;;;;;;;;;5037377;28;20386;-72
2023/09/08 08:21:19;;;;;;;4.38;2.90;;;;;;;;;;5032159;28;20439;-73
2023/09/08 08:23:45;;;;;;;10.30;4.55;;;;;;;;;;5033508;28;20505;-72
2023/09/08 08:26:12;;;;;;;5.72;2.90;;;;;;;;;;5032900;28;20044;-73
2023/09/08 08:28:38;;;;;;;6.00;2.67;;;;;;;;;;5033968;28;20029;-73
2023/09/08 08:31:04;;;;;;;8.77;3.50;;;;;;;;;;5033011;28;20037;-71
2023/09/08 08:33:30;;;;;;;3.35;2.85;;;;;;;;;;5033230;28;20040;-74
2023/09/08 08:35:56;;;;;;;6.18;3.28;;;;;;;;;;5032914;28;20124;-71
2023/09/08 08:38:23;;;;;;;9.20;3.80;;;;;;;;;;5015205;28;20124;-71
2023/09/08 08:40:49;;;;;;;5.93;2.88;;;;;;;;;;5033101;28;20136;-72
2023/09/08 08:43:15;;;;;;;5.38;3.42;;;;;;;;;;5032927;28;20108;-71
2023/09/08 08:45:43;;;;;;;5.97;2.78;;;;;;;;;;5033138;28;20112;-72
2023/09/08 08:48:10;;;;;;;10.60;4.20;;;;;;;;;;5033107;28;20102;-72
2023/09/08 08:50:37;;;;;;;3.80;2.40;;;;;;;;;;5033439;28;20501;-72
2023/09/08 08:53:04;;;;;;;5.22;3.10;;;;;;;;;;5033122;28;20033;-72
2023/09/08 08:55:31;;;;;;;13.32;3.83;;;;;;;;;;5033303;28;20029;-73
2023/09/08 08:58:04;;;;;;;4.60;2.90;;;;;;;;;;5031980;28;20025;-72
2023/09/08 09:00:30;;;;;;;6.60;3.40;;;;;;;;;;5033263;28;20133;-73
2023/09/08 09:02:59;;;;;;;6.82;3.70;;;;;;;;;;5032932;28;20026;-71
2023/09/08 09:05:25;;;;;;;10.27;4.10;;;;;;;;;;5047644;28;20029;-70
2023/09/08 09:07:51;;;;;;;9.50;3.88;;;;;;;;;;5052309;28;20453;-70
2023/09/08 09:10:17;;;;;;;15.52;4.65;;;;;;;;;;5052422;28;20033;-71
2023/09/08 09:12:43;;;;;;;9.18;4.38;;;;;;;;;;5051591;28;20073;-72
2023/09/08 09:15:11;;;;;;;8.27;3.67;;;;;;;;;;5050425;28;20405;-71
2023/09/08 09:17:40;;;;;;;14.80;4.43;;;;;;;;;;5051547;28;20070;-75
2023/09/08 09:20:17;;;;;;;9.10;3.72;;;;;;;;;;5051280;28;20069;-72
2023/09/08 09:22:48;;;;;;;5.72;3.65;;;;;;;;;;5052533;28;20029;-72
2023/09/08 09:25:25;;;;;;;6.03;4.22;;;;;;;;;;5050283;28;20110;-73
2023/09/08 09:27:53;;;;;;;6.47;3.67;;;;;;;;;;5052539;28;20033;-71
2023/09/08 09:30:19;;;;;;;8.80;3.10;;;;;;;;;;5052702;28;20482;-71
2023/09/08 09:32:45;;;;;;;5.60;2.92;;;;;;;;;;5051680;28;20044;-73
2023/09/08 09:35:10;;;;;;;8.02;3.55;;;;;;;;;;5050604;28;20029;-72
2023/09/08 09:37:37;;;;;;;5.38;2.20;;;;;;;;;;5052343;28;20037;-72
2023/09/08 09:40:07;;;;;;;6.32;2.20;;;;;;;;;;5052683;28;20522;-74
2023/09/08 09:42:33;;;;;;;5.95;2.15;;;;;;;;;;5051112;28;20099;-73
2023/09/08 09:45:02;;;;;;;4.22;2.50;;;;;;;;;;5033867;28;20498;-73
2023/09/08 09:47:28;;;;;;;5.35;2.20;;;;;;;;;;5050998;28;20136;-72
2023/09/08 09:49:58;;;;;;;5.35;2.25;;;;;;;;;;5050925;28;20025;-74
2023/09/08 09:52:25;;;;;;;5.57;2.33;;;;;;;;;;5050241;28;20036;-73
2023/09/08 09:54:54;;;;;;;4.70;2.72;;;;;;;;;;5051800;28;20059;-73
2023/09/08 09:57:23;;;;;;;4.28;2.60;;;;;;;;;;5051813;28;20047;-72
2023/09/08 09:59:50;;;;;;;5.05;2.08;;;;;;;;;;5050952;28;20028;-72
2023/09/08 10:02:20;;;;;;;5.50;2.65;;;;;;;;;;5050171;28;20029;-74
2023/09/08 10:04:49;;;;;;;7.55;2.70;;;;;;;;;;5052062;28;20509;-73
2023/09/08 10:07:16;;;;;;;5.47;2.42;;;;;;;;;;5051305;28;20024;-72
2023/09/08 10:09:42;;;;;;;5.75;2.50;;;;;;;;;;5052396;28;20108;-72
2023/09/08 10:12:09;;;;;;;5.88;2.42;;;;;;;;;;5051607;28;20442;-72
2023/09/08 10:14:36;;;;;;;4.35;2.58;;;;;;;;;;5051820;28;20080;-72
2023/09/08 10:17:02;;;;;;;6.70;2.90;;;;;;;;;;5049829;28;20501;-73
2023/09/08 10:19:30;;;;;;;5.93;2.70;;;;;;;;;;5049677;28;20029;-73
2023/09/08 10:22:00;;;;;;;5.68;2.60;;;;;;;;;;5051366;28;20040;-73
2023/09/08 10:24:33;;;;;;;4.70;2.40;;;;;;;;;;5050890;28;20025;-73
2023/09/08 10:27:10;;;;;;;4.25;2.22;;;;;;;;;;5051553;28;20044;-73
2023/09/08 10:29:37;;;;;;;7.90;3.92;;;;;;;;;;5051658;28;20037;-72
2023/09/08 10:32:05;;;;;;;4.72;3.00;;;;;;;;;;5051396;28;20275;-72
2023/09/08 10:34:33;;;;;;;5.00;2.90;;;;;;;;;;5050958;28;20128;-70
2023/09/08 10:36:59;;;;;;;3.97;2.38;;;;;;;;;;5050896;28;20073;-71
2023/09/08 10:39:30;;;;;;;4.70;2.45;;;;;;;;;;5050229;28;20037;-71
2023/09/08 10:42:21;;;;;;;4.72;2.30;;;;;;;;;;5051285;28;20087;-71
2023/09/08 10:44:49;;;;;;;7.10;2.40;;;;;;;;;;5051037;28;20048;-71
2023/09/08 10:47:22;;;;;;;6.53;2.70;;;;;;;;;;5050927;28;20063;-73
2023/09/08 10:49:50;;;;;;;3.08;2.28;;;;;;;;;;5051220;28;20033;-70
2023/09/08 10:52:16;;;;;;;4.85;2.78;;;;;;;;;;5051130;28;20390;-71
2023/09/08 10:54:48;;;;;;;3.70;2.30;;;;;;;;;;5051104;28;20031;-70
2023/09/08 10:57:16;;;;;;;7.13;2.90;;;;;;;;;;5051573;28;20463;-71
2023/09/08 10:59:52;;;;;;;6.78;2.45;;;;;;;;;;5051294;28;20055;-71
2023/09/08 11:02:41;;;;;;;4.47;2.30;;;;;;;;;;5051638;28;20115;-71
2023/09/08 11:05:10;;;;;;;2.97;1.85;;;;;;;;;;5050918;28;20264;-72
2023/09/08 11:07:37;;;;;;;3.78;2.20;;;;;;;;;;5050728;28;20080;-71
2023/09/08 11:10:07;;;;;;;4.03;2.13;;;;;;;;;;5051244;28;20135;-72
2023/09/08 11:12:33;;;;;;;5.13;2.40;;;;;;;;;;5050194;28;20387;-72
2023/09/08 11:15:04;;;;;;;5.55;2.10;;;;;;;;;;5049840;28;20033;-72
2023/09/08 11:17:35;;;;;;;4.15;2.10;;;;;;;;;;5051105;28;20046;-72
2023/09/08 11:20:10;;;;;;;3.47;2.25;;;;;;;;;;5050960;28;20059;-71
2023/09/08 11:22:38;;;;;;;6.03;2.17;;;;;;;;;;5050539;28;20033;-72
2023/09/08 11:25:07;;;;;;;4.70;2.40;;;;;;;;;;5051031;28;20024;-74
2023/09/08 11:27:34;;;;;;;3.63;2.28;;;;;;;;;;5051132;28;20044;-73
2023/09/08 11:30:00;;;;;;;2.90;2.00;;;;;;;;;;5051017;28;20027;-73
2023/09/08 11:32:35;;;;;;;8.70;2.38;;;;;;;;;;5051128;28;20082;-74
2023/09/08 11:35:09;;;;;;;4.63;2.30;;;;;;;;;;5050952;28;20040;-73
2023/09/08 11:37:41;;;;;;;3.28;2.30;;;;;;;;;;5049958;28;20037;-73
2023/09/08 11:40:15;;;;;;;4.97;1.95;;;;;;;;;;5050989;28;20052;-73
2023/09/08 11:42:45;;;;;;;4.38;2.60;;;;;;;;;;5049773;28;20037;-74
2023/09/08 11:45:17;;;;;;;3.30;2.20;;;;;;;;;;5051066;28;20037;-73
2023/09/08 11:47:44;;;;;;;3.92;2.00;;;;;;;;;;5051354;28;20069;-74
2023/09/08 11:50:15;;;;;;;3.78;2.00;;;;;;;;;;5051170;28;20028;-73
2023/09/08 11:52:43;;;;;;;3.42;2.35;;;;;;;;;;5049004;28;20033;-73
2023/09/08 11:55:12;;;;;;;4.20;2.40;;;;;;;;;;5050411;28;20505;-74
2023/09/08 11:57:40;;;;;;;5.38;2.40;;;;;;;;;;5050797;28;20033;-72
2023/09/08 12:00:09;;;;;;;7.38;3.00;;;;;;;;;;5050823;28;20031;-75
2023/09/08 12:02:36;;;;;;;4.03;2.20;;;;;;;;;;5037162;28;20387;-75
2023/09/08 12:05:03;;;;;;;3.30;1.98;;;;;;;;;;5029811;28;20467;-73
2023/09/08 12:07:29;;;;;;;5.63;2.05;;;;;;;;;;5030445;28;20124;-72
2023/09/08 12:09:55;;;;;;;5.75;3.65;;;;;;;;;;5028300;28;20489;-73
2023/09/08 12:12:21;;;;;;;6.07;2.67;;;;;;;;;;5027123;28;20040;-73
2023/09/08 12:14:47;;;;;;;4.75;2.25;;;;;;;;;;4995358;28;20465;-72
2023/09/08 12:17:17;;;;;;;5.80;2.63;;;;;;;;;;5028927;28;20043;-73
2023/09/08 12:19:43;;;;;;;6.53;2.90;;;;;;;;;;5029457;28;20422;-72
2023/09/08 12:22:12;;;;;;;4.72;2.40;;;;;;;;;;5029581;28;20040;-71
2023/09/08 12:24:49;;;;;;;4.93;2.45;;;;;;;;;;5032381;28;20031;-71
2023/09/08 12:27:19;;;;;;;4.90;2.45;;;;;;;;;;5031895;28;20445;-74
2023/09/08 12:30:01;;;;;;;4.95;2.45;;;;;;;;;;5032723;28;20033;-71
2023/09/08 12:32:31;;;;;;;4.60;2.10;;;;;;;;;;5033547;28;20116;-73
2023/09/08 12:34:58;;;;;;;7.50;2.30;;;;;;;;;;5033466;28;20036;-71
2023/09/08 12:37:27;;;;;;;6.65;2.38;;;;;;;;;;5033794;28;20029;-72
2023/09/08 12:39:53;;;;;;;5.22;2.28;;;;;;;;;;5033824;28;20017;-73
2023/09/08 12:42:20;;;;;;;4.35;1.80;;;;;;;;;;5025560;28;20045;-71
2023/09/08 12:44:47;;;;;;;3.47;2.30;;;;;;;;;;5033765;28;20021;-73
2023/09/08 12:47:13;;;;;;;3.92;2.60;;;;;;;;;;5033387;28;20049;-72
2023/09/08 12:49:39;;;;;;;4.18;2.45;;;;;;;;;;5033412;28;20149;-74
2023/09/08 12:52:06;;;;;;;5.55;3.22;;;;;;;;;;5033848;28;20058;-73
2023/09/08 12:54:32;;;;;;;3.63;2.47;;;;;;;;;;5032367;28;20113;-74
2023/09/08 12:56:58;;;;;;;5.95;2.22;;;;;;;;;;5034221;28;20108;-75
2023/09/08 12:59:24;;;;;;;3.78;2.42;;;;;;;;;;5032256;28;20439;-74
2023/09/08 13:01:50;;;;;;;4.70;2.70;;;;;;;;;;5033522;28;20033;-74
2023/09/08 13:04:16;;;;;;;4.43;2.40;;;;;;;;;;5032227;28;20037;-74
2023/09/08 13:06:41;;;;;;;5.78;3.65;;;;;;;;;;5034682;28;20548;-74
2023/09/08 13:09:08;;;;;;;5.30;2.30;;;;;;;;;;5033515;28;20029;-75
2023/09/08 13:11:34;;;;;;;3.88;2.50;;;;;;;;;;5033903;28;20084;-74
2023/09/08 13:13:59;;;;;;;4.15;2.60;;;;;;;;;;5033454;28;20037;-74
2023/09/08 13:16:25;;;;;;;5.18;3.13;;;;;;;;;;5031741;28;20463;-74
2023/09/08 13:18:51;;;;;;;3.88;2.38;;;;;;;;;;5033087;28;20108;-73
2023/09/08 13:21:17;;;;;;;3.47;2.30;;;;;;;;;;5032905;28;20363;-75
2023/09/08 13:23:43;;;;;;;5.38;2.88;;;;;;;;;;5031590;28;20029;-73
2023/09/08 13:26:10;;;;;;;8.68;4.03;;;;;;;;;;5032948;28;20038;-73
2023/09/08 13:28:36;;;;;;;4.32;2.40;;;;;;;;;;5033361;28;20028;-74
2023/09/08 13:31:02;;;;;;;7.13;2.58;;;;;;;;;;5032035;28;20479;-74
2023/09/08 13:33:28;;;;;;;5.05;2.70;;;;;;;;;;5033098;28;20033;-74
2023/09/08 13:35:54;;;;;;;6.85;2.40;;;;;;;;;;5030792;28;20033;-74
2023/09/08 13:38:20;;;;;;;4.63;2.17;;;;;;;;;;5033065;28;20021;-74
2023/09/08 13:40:46;;;;;;;5.13;2.50;;;;;;;;;;5032681;28;20069;-74
2023/09/08 13:43:12;;;;;;;7.00;2.58;;;;;;;;;;5031900;28;20025;-74
2023/09/08 13:45:38;;;;;;;5.15;2.33;;;;;;;;;;5033186;28;20132;-73
2023/09/08 13:48:06;;;;;;;6.30;2.53;;;;;;;;;;5031637;28;20304;-75
2023/09/08 13:50:32;;;;;;;5.97;2.50;;;;;;;;;;5031822;28;20091;-73
2023/09/08 13:52:58;;;;;;;5.93;2.92;;;;;;;;;;5032838;28;20438;-73
2023/09/08 13:55:24;;;;;;;5.35;2.88;;;;;;;;;;5031652;28;20411;-74
2023/09/08 13:57:51;;;;;;;4.82;2.58;;;;;;;;;;5032992;28;20025;-74
2023/09/08 14:00:18;;;;;;;4.28;2.60;;;;;;;;;;5031744;28;20033;-73
2023/09/08 14:02:44;;;;;;;4.57;2.50;;;;;;;;;;5033560;28;20029;-74
2023/09/08 14:05:10;;;;;;;4.18;2.92;;;;;;;;;;5033211;28;20060;-74
2023/09/08 14:07:36;;;;;;;4.57;2.17;;;;;;;;;;5032835;28;20029;-75
2023/09/08 14:10:07;;;;;;;4.85;2.75;;;;;;;;;;5032103;28;20033;-74
2023/09/08 14:12:33;;;;;;;4.75;2.45;;;;;;;;;;5032677;28;20032;-73
2023/09/08 14:14:59;;;;;;;3.30;2.08;;;;;;;;;;5032535;28;20033;-74
2023/09/08 14:17:25;;;;;;;4.65;2.60;;;;;;;;;;5032843;28;20541;-72
2023/09/08 14:19:51;;;;;;;4.20;2.55;;;;;;;;;;5031632;28;20029;-71
2023/09/08 14:22:17;;;;;;;4.90;3.38;;;;;;;;;;5031926;28;20034;-73
2023/09/08 14:24:43;;;;;;;7.03;2.83;;;;;;;;;;5032613;28;20087;-74
2023/09/08 14:27:09;;;;;;;5.75;2.97;;;;;;;;;;5032599;28;20061;-73
2023/09/08 14:29:35;;;;;;;4.38;2.30;;;;;;;;;;5030479;28;20377;-74
2023/09/08 14:32:02;;;;;;;3.95;2.40;;;;;;;;;;5031660;28;20041;-73
2023/09/08 14:34:28;;;;;;;4.10;2.35;;;;;;;;;;5032262;28;20071;-71